Time;durP1;ratioP1;P1;durP2;ratioP2;P2;SDS_P1;SDS_P2;PMS_P1;PMS_P2;Temp;Humidity;BMP_temperature;BMP_pressure;BME280_temperature;BME280_humidity;BME280_pressure;Samples;Min_cycle;Max_cycle;Signal;HPM_P1;HPM_P2
2021/12/05 00:17:43;;;;;;;;;13.50;11.50;;;;;4.30;76.23;99554.41;4935746;28;45481;-77
2021/12/05 00:22:46;;;;;;;;;0.00;0.00;;;;;4.31;76.20;99557.88;4935719;28;45539;-77
2021/12/05 00:25:19;;;;;;;;;1.00;1.00;;;;;4.32;76.45;99559.63;4936934;28;45422;-77
2021/12/05 00:27:49;;;;;;;;;2.00;2.00;;;;;4.33;76.61;99556.09;4935153;28;45426;-77
2021/12/05 00:59:29;;;;;;;;;4.00;2.50;;;;;4.25;76.18;99499.53;5034544;28;45647;-77
2021/12/05 01:07:56;;;;;;;;;0.00;0.00;;;;;4.20;76.77;99531.84;5036158;28;45332;-77
2021/12/05 01:15:48;;;;;;;;;3.75;1.00;;;;;4.26;76.84;99516.06;4971669;28;45680;-77
2021/12/05 01:18:16;;;;;;;;;0.00;0.00;;;;;4.27;76.71;99517.81;4975889;28;45693;-77
2021/12/05 01:20:52;;;;;;;;;0.00;0.00;;;;;4.23;76.83;99510.88;4992164;28;45480;-76
2021/12/05 01:26:05;;;;;;;;;0.00;0.00;;;;;4.28;76.61;99522.16;4992681;28;45972;-77
2021/12/05 01:28:51;;;;;;;;;0.25;0.25;;;;;4.27;76.60;99517.81;4991624;28;45467;-75
2021/12/05 01:31:36;;;;;;;;;0.00;0.00;;;;;4.30;76.29;99507.31;4977978;28;45761;-76
2021/12/05 01:35:08;;;;;;;;;0.00;0.00;;;;;4.34;77.02;99502.91;4984143;28;45660;-77
2021/12/05 01:37:21;;;;;;;;;0.00;0.00;;;;;4.31;76.66;99488.09;4974878;28;46035;-77
2021/12/05 01:40:22;;;;;;;;;0.75;0.00;;;;;4.31;76.37;99492.47;4990765;28;45402;-76
2021/12/05 02:10:46;;;;;;;;;1.00;0.00;;;;;4.13;76.54;99490.94;5011885;28;45891;-77
2021/12/05 02:31:36;;;;;;;;;1.00;0.00;;;;;3.96;77.17;99481.50;4990900;28;45707;-77
2021/12/05 02:42:33;;;;;;;;;3.75;3.75;;;;;3.94;77.38;99482.44;4914407;28;46447;-77
2021/12/05 02:45:04;;;;;;;;;53.75;45.75;;;;;3.95;77.58;99485.03;4915649;28;45461;-75
2021/12/05 02:47:30;;;;;;;;;9.75;9.50;;;;;3.91;77.84;99478.94;4914446;28;45566;-76
2021/12/05 02:49:59;;;;;;;;;2.50;2.50;;;;;3.94;77.50;99472.81;4913461;28;45400;-76
2021/12/05 02:52:32;;;;;;;;;1.00;0.00;;;;;3.91;77.38;99471.09;4913269;28;45616;-76
2021/12/05 02:55:31;;;;;;;;;7.00;6.00;;;;;3.89;77.42;99465.03;4897164;28;45562;-76
2021/12/05 02:58:01;;;;;;;;;0.00;0.00;;;;;3.88;77.28;99462.44;4918966;28;45415;-77
2021/12/05 03:01:18;;;;;;;;;0.00;0.00;;;;;3.84;77.97;99450.28;4917261;28;45513;-77
2021/12/05 03:03:24;;;;;;;;;0.00;0.00;;;;;3.84;77.96;99455.50;4908964;28;46655;-77
2021/12/05 03:05:58;;;;;;;;;0.00;0.00;;;;;3.81;77.84;99442.47;4916623;28;45514;-77
2021/12/05 03:08:24;;;;;;;;;0.00;0.00;;;;;3.78;77.80;99445.09;4916006;28;45424;-77
2021/12/05 03:10:51;;;;;;;;;0.00;0.00;;;;;3.72;77.82;99440.81;4917679;28;45484;-76
2021/12/05 03:13:17;;;;;;;;;0.75;0.00;;;;;3.73;77.68;99445.16;4937571;28;45504;-77
2021/12/05 03:15:43;;;;;;;;;0.00;0.00;;;;;3.71;78.08;99449.53;4938366;28;45462;-77
2021/12/05 03:18:09;;;;;;;;;1.00;1.00;;;;;3.73;77.96;99443.44;4958381;28;45478;-77
2021/12/05 03:20:34;;;;;;;;;0.00;0.00;;;;;3.69;77.97;99439.09;5036629;28;45399;-77
2021/12/05 03:23:00;;;;;;;;;0.00;0.00;;;;;3.71;77.46;99449.53;5036102;28;46195;-77
2021/12/05 03:25:25;;;;;;;;;0.00;0.00;;;;;3.68;78.01;99439.97;5034820;28;45343;-77
2021/12/05 03:27:51;;;;;;;;;0.00;0.00;;;;;3.69;77.77;99440.81;5033674;28;45455;-78
2021/12/05 03:30:21;;;;;;;;;0.00;0.00;;;;;3.65;77.61;99440.00;5035862;28;45293;-77
2021/12/05 03:32:49;;;;;;;;;0.25;0.00;;;;;3.63;77.68;99447.00;5036089;28;46366;-76
2021/12/05 03:35:16;;;;;;;;;0.00;0.00;;;;;3.47;78.27;99420.13;5032776;28;45390;-77
2021/12/05 03:37:47;;;;;;;;;1.00;1.00;;;;;3.56;78.07;99430.50;5031541;28;45537;-77
2021/12/05 03:40:20;;;;;;;;;11.50;9.00;;;;;3.47;78.35;99421.91;5035877;28;45398;-77
2021/12/05 03:42:47;;;;;;;;;9.25;7.50;;;;;3.59;78.25;99441.81;5036625;28;47214;-76
2021/12/05 03:45:19;;;;;;;;;1.00;0.75;;;;;3.56;77.86;99434.88;5036373;28;45431;-77
2021/12/05 03:47:45;;;;;;;;;2.00;2.00;;;;;3.55;78.20;99433.13;5035999;28;45539;-77
2021/12/05 03:50:11;;;;;;;;;0.00;0.00;;;;;3.48;77.76;99415.81;5036225;28;45543;-77
2021/12/05 03:52:38;;;;;;;;;0.00;0.00;;;;;3.51;77.61;99427.06;5016909;28;46425;-77
2021/12/05 03:55:06;;;;;;;;;0.00;0.00;;;;;3.47;78.31;99429.72;5035600;28;45491;-77
2021/12/05 03:57:32;;;;;;;;;0.25;0.25;;;;;3.48;78.04;99431.47;5035357;28;45372;-77
2021/12/05 03:59:57;;;;;;;;;6.00;4.00;;;;;3.46;77.65;99428.00;5035009;28;45312;-78
2021/12/05 04:02:23;;;;;;;;;0.00;0.00;;;;;3.45;78.15;99426.28;5034807;28;46158;-77
2021/12/05 04:04:50;;;;;;;;;0.75;0.00;;;;;3.47;77.65;99424.50;5035181;28;45496;-78
2021/12/05 04:07:16;;;;;;;;;0.00;0.00;;;;;3.44;77.93;99424.53;5035275;28;46127;-77
2021/12/05 04:09:42;;;;;;;;;0.00;0.00;;;;;3.41;77.24;99424.56;5034350;28;45349;-77
2021/12/05 04:12:09;;;;;;;;;0.00;0.00;;;;;3.38;77.15;99415.84;5035795;28;46138;-77
2021/12/05 04:14:38;;;;;;;;;0.00;0.00;;;;;3.36;77.37;99417.63;5035973;28;45463;-77
2021/12/05 04:17:07;;;;;;;;;0.00;0.00;;;;;3.25;77.77;99395.97;5037136;28;45439;-76
2021/12/05 04:19:34;;;;;;;;;1.00;0.00;;;;;3.35;77.96;99417.63;5036088;28;45579;-78
2021/12/05 04:22:00;;;;;;;;;0.00;0.00;;;;;3.35;77.53;99422.88;5035966;28;45446;-75
2021/12/05 04:24:25;;;;;;;;;0.00;0.00;;;;;3.35;77.72;99426.34;5037027;28;45319;-82
2021/12/05 04:26:51;;;;;;;;;0.00;0.00;;;;;3.31;77.97;99427.25;5029693;28;45385;-83
2021/12/05 04:29:18;;;;;;;;;0.00;0.00;;;;;3.34;77.42;99422.00;5020414;28;45374;-83
2021/12/05 04:31:44;;;;;;;;;0.75;0.25;;;;;3.28;77.37;99413.34;5038143;28;45639;-82
2021/12/05 04:34:11;;;;;;;;;1.00;0.00;;;;;3.16;77.55;99388.22;5037157;28;45626;-82
2021/12/05 04:36:38;;;;;;;;;0.25;0.25;;;;;3.31;77.47;99418.53;5021658;28;45347;-81
2021/12/05 04:39:05;;;;;;;;;0.00;0.00;;;;;3.29;77.77;99415.94;5005673;28;45572;-82
2021/12/05 04:41:30;;;;;;;;;0.00;0.00;;;;;3.26;77.24;99405.53;5037813;28;46369;-82
2021/12/05 04:43:58;;;;;;;;;0.00;0.00;;;;;3.31;77.00;99408.97;5038503;28;45501;-76
2021/12/05 04:46:25;;;;;;;;;0.00;0.00;;;;;3.30;77.13;99409.00;5034802;28;45415;-77
2021/12/05 04:48:54;;;;;;;;;0.00;0.00;;;;;3.25;77.01;99406.44;5035566;28;45553;-78
2021/12/05 04:51:24;;;;;;;;;0.00;0.00;;;;;3.25;77.47;99403.81;5034795;28;45384;-81
2021/12/05 04:53:50;;;;;;;;;0.00;0.00;;;;;3.24;76.96;99406.44;5047123;28;45411;-82
2021/12/05 04:56:16;;;;;;;;;0.00;0.00;;;;;3.22;77.63;99406.44;5047342;28;45383;-84
2021/12/05 04:58:43;;;;;;;;;0.00;0.00;;;;;3.19;77.63;99404.72;5042004;28;45432;-83
2021/12/05 05:01:08;;;;;;;;;0.00;0.00;;;;;2.99;77.54;99375.28;5040188;28;45447;-81
2021/12/05 05:03:35;;;;;;;;;0.00;0.00;;;;;3.21;77.24;99409.94;5038326;28;45491;-83
2021/12/05 05:06:15;;;;;;;;;0.00;0.00;;;;;3.16;77.90;99403.91;5038041;28;45332;-82
2021/12/05 05:08:47;;;;;;;;;0.00;0.00;;;;;3.17;77.95;99403.88;5021979;28;45628;-84
2021/12/05 05:11:15;;;;;;;;;0.00;0.00;;;;;3.14;77.46;99388.25;5038398;28;46202;-83
2021/12/05 05:13:41;;;;;;;;;0.00;0.00;;;;;3.16;77.91;99396.91;5035886;28;45524;-81
2021/12/05 05:16:08;;;;;;;;;0.00;0.00;;;;;3.13;77.58;99388.25;5037095;28;45548;-82
2021/12/05 05:18:45;;;;;;;;;0.00;0.00;;;;;3.14;78.18;99384.75;5043120;28;45417;-82
2021/12/05 05:50:24;;;;;;;;;0.00;0.00;;;;;3.30;78.03;99401.16;4961751;28;45502;-83
2021/12/05 05:52:50;;;;;;;;;0.00;0.00;;;;;3.33;77.88;99406.34;4963379;28;46040;-83
2021/12/05 05:55:15;;;;;;;;;1.00;0.00;;;;;3.36;78.03;99409.78;4963474;28;45585;-81
2021/12/05 06:00:19;;;;;;;;;0.00;0.00;;;;;3.43;78.09;99404.50;4973670;28;45350;-83
2021/12/05 06:05:32;;;;;;;;;6.00;0.00;;;;;3.50;77.99;99400.97;4975789;28;45542;-82
2021/12/05 06:07:57;;;;;;;;;0.25;0.00;;;;;3.47;77.53;99393.16;4961521;28;45573;-83
2021/12/05 06:10:26;;;;;;;;;0.00;0.00;;;;;3.48;77.92;99389.66;4955875;28;45452;-82
2021/12/05 06:12:52;;;;;;;;;0.00;0.00;;;;;3.48;77.81;99389.66;4955649;28;45518;-83
2021/12/05 06:15:19;;;;;;;;;0.00;0.00;;;;;3.51;77.19;99379.19;4958611;28;45633;-83
2021/12/05 06:17:45;;;;;;;;;0.00;0.00;;;;;3.44;77.27;99360.06;4974943;28;45508;-82
2021/12/05 06:20:15;;;;;;;;;0.00;0.00;;;;;3.47;77.66;99365.28;4979114;28;45583;-83
2021/12/05 06:22:41;;;;;;;;;0.00;0.00;;;;;3.50;77.78;99373.06;4980639;28;47268;-82
2021/12/05 06:25:14;;;;;;;;;0.00;0.00;;;;;3.50;77.86;99360.00;4983390;28;45546;-82
2021/12/05 06:27:41;;;;;;;;;0.75;0.00;;;;;3.49;77.17;99362.63;5038148;28;45382;-83
2021/12/05 06:30:12;;;;;;;;;0.00;0.00;;;;;3.52;77.67;99383.50;5035316;28;45517;-82
2021/12/05 06:38:27;;;;;;;;;0.00;0.00;;;;;3.46;77.30;99366.16;5037453;28;45415;-83
2021/12/05 06:41:07;;;;;;;;;0.00;0.00;;;;;3.47;77.82;99364.41;5021082;28;45503;-84
2021/12/05 06:46:05;;;;;;;;;0.00;0.00;;;;;3.54;77.56;99379.16;5031924;28;45435;-82
2021/12/05 06:48:31;;;;;;;;;0.00;0.00;;;;;3.53;77.79;99382.63;5047005;28;45308;-82
2021/12/05 06:50:57;;;;;;;;;0.00;0.00;;;;;3.51;77.22;99373.97;5054433;28;45285;-83
2021/12/05 06:53:22;;;;;;;;;0.00;0.00;;;;;3.51;77.93;99379.19;5042738;28;46152;-83
2021/12/05 06:55:48;;;;;;;;;0.50;0.00;;;;;3.48;77.84;99374.00;5039312;28;45436;-82
2021/12/05 06:58:13;;;;;;;;;0.00;0.00;;;;;3.49;77.45;99380.94;5023354;28;45396;-82
2021/12/05 07:00:39;;;;;;;;;0.00;0.00;;;;;3.50;77.65;99403.56;5038106;28;45499;-81
2021/12/05 07:03:07;;;;;;;;;0.00;0.00;;;;;3.44;78.62;99383.59;5038792;28;45581;-82
2021/12/05 07:08:34;;;;;;;;;0.00;0.00;;;;;3.55;79.34;99422.69;5017934;28;45317;-82
2021/12/05 07:11:11;;;;;;;;;0.00;0.00;;;;;3.55;79.97;99418.34;5017805;28;45550;-83
2021/12/05 07:42:48;;;;;;;;;0.00;0.00;;;;;3.67;82.12;99414.72;4997903;28;45390;-76
2021/12/05 07:45:21;;;;;;;;;0.75;0.00;;;;;3.66;81.25;99412.13;5015002;28;46451;-75
2021/12/05 07:47:49;;;;;;;;;0.75;0.00;;;;;3.70;81.44;99404.22;4999786;28;45500;-76
2021/12/05 07:50:16;;;;;;;;;0.00;0.00;;;;;3.73;81.87;99396.38;5032418;28;45373;-76
2021/12/05 07:52:45;;;;;;;;;0.00;0.00;;;;;3.75;82.19;99406.81;5036873;28;45419;-76
2021/12/05 07:55:39;;;;;;;;;0.00;0.00;;;;;3.76;81.26;99410.28;5037293;28;45430;-77
2021/12/05 08:00:35;;;;;;;;;0.00;0.00;;;;;3.68;81.65;99390.31;5035313;28;45328;-76
2021/12/05 08:16:45;;;;;;;;;1.00;0.00;;;;;3.85;82.13;99404.94;5022804;28;45746;-80
2021/12/05 08:19:11;;;;;;;;;0.00;0.00;;;;;3.99;81.91;99408.25;5029841;28;45541;-77
2021/12/05 08:21:36;;;;;;;;;0.00;0.00;;;;;4.06;82.04;99415.16;4999631;28;45764;-77
2021/12/05 08:24:02;;;;;;;;;0.00;0.00;;;;;4.16;81.37;99426.41;5022079;28;45519;-78
2021/12/05 08:26:32;;;;;;;;;0.00;0.00;;;;;4.18;81.61;99413.28;5023202;28;46275;-78
2021/12/05 08:29:09;;;;;;;;;0.00;0.00;;;;;4.13;81.18;99404.63;5005729;28;45353;-78
2021/12/05 08:32:13;;;;;;;;;2.75;0.00;;;;;4.21;81.34;99413.25;5016728;28;45380;-79
2021/12/05 08:34:45;;;;;;;;;0.25;0.00;;;;;4.21;80.90;99414.13;5025519;28;45352;-78
2021/12/05 08:39:58;;;;;;;;;1.00;0.00;;;;;4.23;80.47;99412.34;5025511;28;45451;-77
2021/12/05 09:51:15;;;;;;;;;0.00;0.00;;;;;8.68;64.81;99434.47;4920370;28;45489;-82
2021/12/05 10:13:00;;;;;;;;;0.00;0.00;;;;;7.28;70.02;99474.16;4986473;28;45448;-81
2021/12/05 10:16:32;;;;;;;;;0.00;0.00;;;;;7.23;71.12;99476.03;4986539;28;45723;-81
2021/12/05 10:37:50;;;;;;;;;1.00;0.00;;;;;8.08;68.91;99466.00;5026713;28;46116;-77
2021/12/05 10:40:21;;;;;;;;;0.00;0.00;;;;;8.04;68.44;99459.06;5027415;28;45516;-77
2021/12/05 10:42:50;;;;;;;;;0.75;0.00;;;;;7.96;68.78;99451.41;5028919;28;45626;-77
2021/12/05 10:45:34;;;;;;;;;1.00;1.00;;;;;8.02;68.32;99466.16;5019490;28;45559;-78
2021/12/05 10:48:05;;;;;;;;;0.00;0.00;;;;;8.06;68.83;99461.66;5008590;28;46646;-77
2021/12/05 10:50:39;;;;;;;;;0.00;0.00;;;;;8.14;68.83;99452.66;5027068;28;45571;-76
2021/12/05 10:53:35;;;;;;;;;0.00;0.00;;;;;8.11;67.24;99444.84;5026265;28;45506;-77
2021/12/05 10:56:11;;;;;;;;;0.00;0.00;;;;;7.94;68.07;99444.44;5030011;28;45560;-78
2021/12/05 10:58:46;;;;;;;;;0.75;0.00;;;;;7.74;67.47;99451.09;5028532;28;45486;-77
2021/12/05 11:01:16;;;;;;;;;0.00;0.00;;;;;7.58;68.62;99445.38;5026992;28;45530;-77
2021/12/05 11:03:43;;;;;;;;;1.00;0.00;;;;;7.48;69.34;99443.88;5028948;28;45540;-78
2021/12/05 11:06:41;;;;;;;;;0.00;0.00;;;;;7.45;70.11;99446.59;5029839;28;45495;-78
2021/12/05 11:09:15;;;;;;;;;0.00;0.00;;;;;7.44;69.81;99452.75;5023773;28;46347;-77
2021/12/05 11:11:44;;;;;;;;;0.75;0.75;;;;;7.47;69.87;99447.44;5019270;28;45560;-77
2021/12/05 11:14:17;;;;;;;;;0.00;0.00;;;;;7.49;70.27;99434.25;4998058;28;45506;-77
2021/12/05 11:16:47;;;;;;;;;3.00;0.00;;;;;7.53;70.90;99446.38;5018236;28;45488;-77
2021/12/05 11:19:31;;;;;;;;;0.00;0.00;;;;;7.54;70.37;99438.47;5033123;28;46080;-77
2021/12/05 11:22:15;;;;;;;;;2.00;0.00;;;;;7.51;69.82;99433.28;5027628;28;45357;-77
2021/12/05 11:24:47;;;;;;;;;3.00;1.00;;;;;7.35;71.21;99410.91;5028074;28;45491;-77
2021/12/05 11:27:14;;;;;;;;;0.50;0.00;;;;;7.35;70.76;99426.69;5032966;28;45605;-77
2021/12/05 11:30:00;;;;;;;;;0.00;0.00;;;;;7.29;70.86;99431.19;5024605;28;46248;-77
2021/12/05 11:32:43;;;;;;;;;1.00;1.00;;;;;7.22;70.76;99432.25;5030603;28;45467;-76
2021/12/05 11:35:16;;;;;;;;;2.00;0.00;;;;;7.12;70.86;99430.72;5019235;28;45473;-77
2021/12/05 11:37:58;;;;;;;;;0.00;0.00;;;;;6.96;71.41;99435.50;5030189;28;45427;-77
2021/12/05 11:40:27;;;;;;;;;0.00;0.00;;;;;6.87;72.77;99431.31;5028341;28;45535;-77
2021/12/05 11:42:56;;;;;;;;;0.00;0.00;;;;;6.80;72.96;99437.59;5015733;28;45517;-78
2021/12/05 11:45:21;;;;;;;;;0.75;0.00;;;;;6.70;73.12;99429.06;5023599;28;45472;-78
2021/12/05 11:47:51;;;;;;;;;0.00;0.00;;;;;6.63;73.78;99437.13;5025437;28;45531;-78
2021/12/05 11:50:19;;;;;;;;;0.00;0.00;;;;;6.56;74.15;99441.66;5027935;28;46925;-80
2021/12/05 11:52:48;;;;;;;;;1.00;0.00;;;;;6.48;75.01;99444.41;5018587;28;45364;-77
2021/12/05 11:55:24;;;;;;;;;3.75;1.00;;;;;6.42;75.46;99448.94;5035428;28;45344;-77
2021/12/05 11:57:51;;;;;;;;;0.00;0.00;;;;;6.31;74.46;99451.78;5036107;28;45621;-76
2021/12/05 12:00:18;;;;;;;;;0.00;0.00;;;;;6.32;75.07;99459.63;5029169;28;46217;-77
2021/12/05 12:02:46;;;;;;;;;1.00;1.00;;;;;6.23;76.61;99465.91;4998586;28;45455;-77
2021/12/05 12:05:26;;;;;;;;;0.00;0.00;;;;;6.19;75.73;99472.13;5030380;28;45438;-76
2021/12/05 12:07:52;;;;;;;;;0.00;0.00;;;;;6.11;76.01;99476.66;5018114;28;45606;-77
2021/12/05 12:10:38;;;;;;;;;0.00;0.00;;;;;6.03;76.21;99489.94;5019498;28;45449;-77
2021/12/05 12:13:10;;;;;;;;;0.00;0.00;;;;;5.97;75.89;99474.31;5016401;28;45439;-76
2021/12/05 12:15:38;;;;;;;;;1.00;0.25;;;;;5.91;75.73;99473.53;5025666;28;45448;-77
2021/12/05 12:18:16;;;;;;;;;0.00;0.00;;;;;5.87;74.22;99473.56;5027137;28;45582;-78
2021/12/05 12:20:45;;;;;;;;;1.00;0.00;;;;;5.82;74.37;99471.94;5014167;28;45516;-77
2021/12/05 12:23:11;;;;;;;;;0.00;0.00;;;;;5.77;74.69;99466.78;5015044;28;45745;-77
2021/12/05 12:25:39;;;;;;;;;0.75;0.00;;;;;5.88;74.23;99480.53;5017519;28;45441;-77
2021/12/05 12:28:08;;;;;;;;;0.00;0.00;;;;;5.90;74.71;99484.91;5024168;28;45396;-77
2021/12/05 12:30:38;;;;;;;;;0.00;0.00;;;;;5.92;76.16;99480.47;5027884;28;46045;-77
2021/12/05 12:33:18;;;;;;;;;2.50;0.00;;;;;5.98;75.12;99485.66;5021518;28;45397;-77
2021/12/05 12:35:47;;;;;;;;;0.00;0.00;;;;;5.93;74.79;99485.69;5022786;28;45544;-77
2021/12/05 12:38:17;;;;;;;;;0.00;0.00;;;;;5.92;74.44;99497.09;5034753;28;45587;-77
2021/12/05 12:40:52;;;;;;;;;0.00;0.00;;;;;5.86;73.53;99487.59;5021636;28;45494;-78
2021/12/05 12:43:37;;;;;;;;;0.00;0.00;;;;;5.82;73.55;99490.28;5014630;28;45392;-77
2021/12/05 12:46:23;;;;;;;;;0.00;0.00;;;;;5.77;73.58;99495.63;5023132;28;45311;-77
2021/12/05 12:48:58;;;;;;;;;2.50;2.00;;;;;5.72;74.46;99478.22;5027744;28;45540;-81
2021/12/05 12:51:37;;;;;;;;;7.25;6.50;;;;;5.72;74.96;99486.94;5020744;28;45423;-81
2021/12/05 12:54:08;;;;;;;;;0.00;0.00;;;;;5.68;75.00;99487.91;5019363;28;45860;-80
2021/12/05 12:56:34;;;;;;;;;0.00;0.00;;;;;5.64;74.90;99494.94;5029275;28;45414;-79
2021/12/05 12:59:06;;;;;;;;;0.25;0.25;;;;;5.73;74.54;99498.31;5023835;28;45401;-81
2021/12/05 13:05:02;;;;;;;;;0.00;0.00;;;;;6.10;74.51;99498.53;4973693;28;45675;-81
2021/12/05 13:10:32;;;;;;;;;0.50;0.00;;;;;6.29;73.84;99503.47;4973277;28;45619;-80
2021/12/05 13:13:02;;;;;;;;;0.00;0.00;;;;;6.39;73.17;99504.97;4981391;28;45521;-80
2021/12/05 13:15:38;;;;;;;;;0.00;0.00;;;;;6.48;73.47;99515.28;4975453;28;45593;-81
2021/12/05 13:18:13;;;;;;;;;0.50;0.50;;;;;6.56;73.55;99516.03;4982498;28;45465;-80
2021/12/05 13:20:41;;;;;;;;;0.25;0.00;;;;;6.60;72.66;99514.19;4992798;28;45533;-80
2021/12/05 13:23:13;;;;;;;;;3.00;1.00;;;;;6.56;71.88;99520.41;4991741;28;46542;-79
2021/12/05 13:26:16;;;;;;;;;0.00;0.00;;;;;6.55;72.66;99519.53;4993746;28;45622;-80
2021/12/05 13:28:45;;;;;;;;;3.00;0.75;;;;;6.60;72.92;99516.81;4996159;28;45381;-80
2021/12/05 13:31:29;;;;;;;;;0.00;0.00;;;;;6.73;72.34;99530.56;4987943;28;45667;-80
2021/12/05 13:34:31;;;;;;;;;1.50;0.00;;;;;6.88;72.37;99517.09;4992821;28;46014;-81
2021/12/05 13:36:56;;;;;;;;;1.00;1.00;;;;;6.90;71.70;99520.56;4988403;28;45465;-82
2021/12/05 13:39:48;;;;;;;;;3.25;1.00;;;;;6.96;72.01;99526.59;4992359;28;45387;-80
2021/12/05 13:42:16;;;;;;;;;1.50;0.00;;;;;6.94;71.59;99538.00;5017934;28;45411;-80
2021/12/05 13:44:57;;;;;;;;;1.50;1.50;;;;;6.90;71.82;99528.44;5022445;28;46204;-80
2021/12/05 13:47:28;;;;;;;;;1.00;1.00;;;;;6.98;72.17;99527.41;5027178;28;45438;-81
2021/12/05 13:49:56;;;;;;;;;5.25;3.00;;;;;7.03;71.88;99533.41;5017065;28;45455;-81
2021/12/05 13:52:30;;;;;;;;;2.00;2.00;;;;;7.06;71.66;99530.72;5019787;28;45590;-81
2021/12/05 13:55:31;;;;;;;;;1.00;1.00;;;;;7.07;71.19;99540.34;5027420;28;46466;-80
2021/12/05 13:58:20;;;;;;;;;2.00;1.00;;;;;7.11;71.36;99544.66;4993049;28;45397;-80
2021/12/05 14:00:55;;;;;;;;;1.00;1.00;;;;;7.20;71.22;99546.22;4993531;28;45462;-81
2021/12/05 14:03:40;;;;;;;;;0.00;0.00;;;;;7.18;71.70;99543.63;4992344;28;45338;-79
2021/12/05 14:06:35;;;;;;;;;0.00;0.00;;;;;7.19;72.13;99557.63;4990123;28;47296;-81
2021/12/05 14:09:24;;;;;;;;;1.00;0.00;;;;;7.17;71.69;99552.41;4978900;28;45515;-81
2021/12/05 14:11:59;;;;;;;;;0.00;0.00;;;;;7.17;72.74;99560.28;4990854;28;45936;-80
2021/12/05 14:14:53;;;;;;;;;1.50;1.50;;;;;7.16;71.79;99561.16;4991839;28;45495;-80
2021/12/05 14:17:33;;;;;;;;;4.00;0.50;;;;;7.10;72.26;99553.41;4950481;28;45588;-76
2021/12/05 14:20:27;;;;;;;;;1.00;1.00;;;;;7.06;73.03;99557.88;4952558;28;45544;-80
2021/12/05 14:22:54;;;;;;;;;0.00;0.00;;;;;6.97;73.38;99551.94;4958805;28;45435;-80
2021/12/05 14:25:23;;;;;;;;;1.00;1.00;;;;;6.96;73.03;99560.75;4945969;28;45413;-81
2021/12/05 14:27:58;;;;;;;;;0.25;0.00;;;;;6.89;72.52;99568.75;4953711;28;45425;-81
2021/12/05 14:30:29;;;;;;;;;1.00;0.00;;;;;6.85;72.97;99571.47;4956333;28;45530;-81
2021/12/05 14:32:58;;;;;;;;;0.00;0.00;;;;;6.80;72.71;99571.56;4958243;28;45458;-80
2021/12/05 14:35:32;;;;;;;;;0.00;0.00;;;;;6.80;73.88;99587.31;4957747;28;45609;-80
2021/12/05 14:38:01;;;;;;;;;1.00;1.00;;;;;6.55;72.74;99558.91;4974484;28;47132;-80
2021/12/05 14:40:31;;;;;;;;;1.75;0.75;;;;;6.68;73.55;99571.81;4948085;28;45355;-80
2021/12/05 14:43:03;;;;;;;;;1.25;0.25;;;;;6.71;73.03;99587.50;4956641;28;45557;-81
2021/12/05 14:45:32;;;;;;;;;0.00;0.00;;;;;6.64;73.67;99578.88;4971349;28;45611;-80
2021/12/05 14:48:03;;;;;;;;;3.00;1.00;;;;;6.72;73.77;99589.25;4968252;28;46187;-80
2021/12/05 14:50:31;;;;;;;;;1.00;1.00;;;;;6.76;73.16;99594.41;4965703;28;45489;-80
2021/12/05 14:53:02;;;;;;;;;1.50;1.00;;;;;6.80;73.50;99594.34;4962138;28;45599;-80
2021/12/05 14:55:30;;;;;;;;;2.50;1.00;;;;;6.77;73.30;99605.75;5008056;28;45458;-80
2021/12/05 14:57:59;;;;;;;;;0.00;0.00;;;;;6.69;73.76;99597.19;4986616;28;46301;-81
2021/12/05 15:00:27;;;;;;;;;2.00;0.00;;;;;6.74;74.33;99605.81;5021209;28;45477;-81
2021/12/05 15:03:07;;;;;;;;;2.50;1.00;;;;;6.75;73.93;99615.44;5005836;28;45432;-80
2021/12/05 15:05:38;;;;;;;;;0.75;0.75;;;;;6.71;74.35;99617.28;5015940;28;45548;-80
2021/12/05 15:08:07;;;;;;;;;0.25;0.25;;;;;6.65;73.90;99620.00;5016581;28;45587;-80
2021/12/05 15:10:33;;;;;;;;;0.00;0.00;;;;;6.50;74.70;99610.66;5007702;28;45501;-78
2021/12/05 15:12:59;;;;;;;;;0.00;0.00;;;;;6.60;74.25;99636.75;5017249;28;45570;-80
2021/12/05 15:15:27;;;;;;;;;2.50;1.00;;;;;6.57;74.92;99627.16;5002444;28;45480;-81
2021/12/05 15:17:55;;;;;;;;;0.00;0.00;;;;;6.53;75.33;99633.38;4998881;28;45460;-80
2021/12/05 15:20:24;;;;;;;;;0.50;0.50;;;;;6.53;75.52;99641.25;4993343;28;45460;-80
2021/12/05 15:22:54;;;;;;;;;3.00;3.00;;;;;6.51;75.00;99649.16;5006462;28;45417;-80
2021/12/05 15:25:27;;;;;;;;;2.00;2.00;;;;;6.48;75.48;99645.72;4999688;28;45408;-80
2021/12/05 15:27:54;;;;;;;;;0.00;0.00;;;;;6.46;76.17;99644.88;5015576;28;47222;-80
2021/12/05 15:30:48;;;;;;;;;1.00;1.00;;;;;6.42;76.86;99654.53;5010825;28;45448;-80
2021/12/05 15:33:17;;;;;;;;;0.50;0.50;;;;;6.42;76.57;99665.03;5014769;28;45306;-79
2021/12/05 15:35:46;;;;;;;;;0.00;0.00;;;;;6.34;77.38;99667.81;5014802;28;45559;-80
2021/12/05 15:38:15;;;;;;;;;2.50;2.50;;;;;6.17;77.48;99654.97;5027673;28;47286;-80
2021/12/05 15:40:43;;;;;;;;;0.00;0.00;;;;;6.33;77.06;99684.47;5036228;28;45387;-81
2021/12/05 15:43:12;;;;;;;;;0.00;0.00;;;;;6.29;77.42;99689.78;5030806;28;45513;-80
2021/12/05 15:45:41;;;;;;;;;0.00;0.00;;;;;6.25;76.49;99694.22;5022292;28;45563;-81
2021/12/05 15:48:07;;;;;;;;;0.00;0.00;;;;;6.17;76.30;99694.34;5006605;28;45482;-80
2021/12/05 15:50:34;;;;;;;;;2.00;0.50;;;;;6.14;76.61;99701.41;5035164;28;45467;-80
2021/12/05 15:53:02;;;;;;;;;2.50;0.25;;;;;6.18;78.13;99709.19;5028933;28;45494;-79
2021/12/05 15:55:38;;;;;;;;;1.00;0.00;;;;;6.18;77.68;99714.44;5030563;28;45409;-79
2021/12/05 15:58:23;;;;;;;;;0.00;0.00;;;;;6.15;77.90;99721.47;5030155;28;46411;-82
2021/12/05 16:00:58;;;;;;;;;0.00;0.00;;;;;6.08;77.40;99718.09;5033835;28;45428;-80
2021/12/05 16:03:36;;;;;;;;;1.50;1.00;;;;;6.09;77.17;99730.34;5017406;28;45385;-80
2021/12/05 16:06:04;;;;;;;;;1.00;1.00;;;;;6.03;77.80;99733.91;5034833;28;45479;-80
2021/12/05 16:08:32;;;;;;;;;3.25;3.00;;;;;6.00;77.09;99740.97;4996608;28;45397;-80
2021/12/05 16:11:01;;;;;;;;;2.00;0.00;;;;;6.00;77.50;99746.22;5030411;28;45459;-81
2021/12/05 16:13:41;;;;;;;;;2.50;0.25;;;;;6.00;77.78;99754.09;5028431;28;45510;-80
2021/12/05 16:16:17;;;;;;;;;0.75;0.75;;;;;5.97;78.25;99756.75;5016727;28;45416;-80
2021/12/05 16:18:45;;;;;;;;;2.50;2.50;;;;;5.96;78.36;99766.31;5037698;28;46135;-80
2021/12/05 16:21:20;;;;;;;;;1.00;1.00;;;;;5.96;77.78;99768.09;5034643;28;45435;-79
2021/12/05 16:23:47;;;;;;;;;0.00;0.00;;;;;5.92;76.93;99769.91;5035840;28;45334;-80
2021/12/05 16:26:19;;;;;;;;;1.50;1.50;;;;;5.93;77.32;99782.09;5024280;28;45503;-80
2021/12/05 16:28:59;;;;;;;;;1.75;0.75;;;;;5.95;77.40;99779.47;5032537;28;45985;-80
2021/12/05 16:31:29;;;;;;;;;3.00;1.00;;;;;5.94;77.49;99785.63;5028956;28;45468;-80
2021/12/05 16:34:08;;;;;;;;;3.25;1.75;;;;;5.95;77.67;99792.56;5022759;28;45460;-80
2021/12/05 16:36:39;;;;;;;;;0.75;0.75;;;;;5.94;77.57;99798.72;5028994;28;45551;-80
2021/12/05 16:39:11;;;;;;;;;3.25;3.25;;;;;5.96;77.39;99802.19;5028232;28;46061;-81
2021/12/05 16:41:42;;;;;;;;;2.50;2.50;;;;;5.87;78.10;99788.28;5022386;28;45462;-80
2021/12/05 16:44:12;;;;;;;;;3.00;0.75;;;;;5.95;78.09;99785.59;5024688;28;45633;-80
2021/12/05 16:46:46;;;;;;;;;3.50;3.50;;;;;5.98;78.13;99800.44;5033544;28;45586;-81
2021/12/05 16:49:15;;;;;;;;;0.25;0.00;;;;;5.94;78.18;99810.09;5028798;28;47977;-81
2021/12/05 16:51:49;;;;;;;;;3.00;1.00;;;;;5.97;77.92;99815.31;5029904;28;45370;-81
2021/12/05 16:54:25;;;;;;;;;1.00;1.00;;;;;5.97;77.79;99806.59;5015585;28;45613;-80
2021/12/05 16:56:59;;;;;;;;;3.50;3.50;;;;;5.92;77.88;99818.84;5032919;28;45659;-80
2021/12/05 16:59:27;;;;;;;;;4.00;3.00;;;;;5.97;78.15;99830.22;5035162;28;45753;-81
2021/12/05 17:02:18;;;;;;;;;5.50;2.00;;;;;5.97;78.45;99830.22;5040942;28;45553;-79
2021/12/05 17:05:03;;;;;;;;;0.25;0.25;;;;;5.95;78.23;99831.94;5018939;28;45707;-80
2021/12/05 17:08:09;;;;;;;;;1.50;1.50;;;;;5.94;78.17;99833.69;5025806;28;45553;-81
2021/12/05 17:10:37;;;;;;;;;1.00;1.00;;;;;5.93;77.94;99828.47;4990876;28;46185;-81
2021/12/05 17:13:16;;;;;;;;;3.00;3.00;;;;;5.94;77.87;99841.56;4993406;28;45554;-81
2021/12/05 17:15:50;;;;;;;;;2.50;1.00;;;;;5.96;78.13;99841.53;4991941;28;45642;-80
2021/12/05 17:18:25;;;;;;;;;3.25;3.25;;;;;5.92;78.33;99839.84;4992106;28;45564;-79
2021/12/05 17:20:55;;;;;;;;;1.75;1.00;;;;;5.91;78.00;99841.59;4992949;28;45625;-81
2021/12/05 17:23:23;;;;;;;;;4.00;3.00;;;;;5.95;77.26;99852.91;4975678;28;45565;-80
2021/12/05 17:25:52;;;;;;;;;3.50;2.00;;;;;5.93;77.34;99849.44;4992710;28;45464;-81
2021/12/05 17:28:29;;;;;;;;;3.00;3.00;;;;;5.98;77.76;99860.78;4993380;28;45459;-80
2021/12/05 17:30:58;;;;;;;;;3.00;1.00;;;;;5.95;77.78;99858.16;4994528;28;45483;-80